Sn Margarita, California
Current Conditions -  °F | °C
As of 7:51 AM on Thursday 18 Dec 2014 (Local Time) from KSMX Reporting Station
Overcast Overcast  
Wind Chill: 55°   Ceiling: 2400
Heat Index: 55°   Visibility: 10mi
Dew Point: 47°   Wind: 5mph
Humidity: 74%   Direction: 90°E
Pressure: 30.14"   Gusts: NA
Location:  35.235°N, 120.021°W
Report Text: KSMX 181551Z 09004KT 10SM OVC024 13/08 A3014 RMK AO2 SLP209 T01280083
Loading
Personal Weather Stations






























Interactive Weather Map New forecast layout! Learn more

10-Day Weather Forecast

Advertisements
Track Severe Weather on mobile